createdAt,value
2022-10-05T00:02:26.382Z,7.13
2022-10-05T00:04:56.492Z,8.57
2022-10-05T00:07:24.500Z,12.85
2022-10-05T00:10:00.299Z,11.63
2022-10-05T00:12:29.865Z,9.98
2022-10-05T00:15:00.688Z,8.15
2022-10-05T00:17:29.652Z,8.48
2022-10-05T00:19:56.644Z,9.57
2022-10-05T00:22:29.902Z,8.80
2022-10-05T00:24:59.978Z,7.75
2022-10-05T00:27:36.166Z,9.45
2022-10-05T00:30:13.240Z,6.07
2022-10-05T00:32:39.713Z,9.18
2022-10-05T00:35:06.669Z,9.17
2022-10-05T00:37:33.311Z,8.52
2022-10-05T00:39:59.773Z,8.00
2022-10-05T00:42:32.597Z,8.73
2022-10-05T00:45:21.847Z,8.45
2022-10-05T00:48:14.852Z,9.57
2022-10-05T00:51:15.079Z,9.63
2022-10-05T00:53:47.530Z,8.27
2022-10-05T00:56:46.310Z,9.25
2022-10-05T00:59:31.654Z,8.57
2022-10-05T01:02:34.365Z,9.37
2022-10-05T01:05:20.330Z,9.55
2022-10-05T01:08:11.326Z,10.90
2022-10-05T01:11:10.695Z,8.65
2022-10-05T01:14:12.266Z,10.27
2022-10-05T01:16:57.108Z,8.70
2022-10-05T01:19:32.372Z,8.75
2022-10-05T01:22:34.274Z,10.48
2022-10-05T01:25:22.915Z,11.70
2022-10-05T01:27:54.740Z,9.18
2022-10-05T01:30:22.286Z,10.70
2022-10-05T01:33:01.304Z,11.63
2022-10-05T01:35:44.318Z,15.07
2022-10-05T01:38:26.040Z,10.73
2022-10-05T01:41:16.485Z,10.70
2022-10-05T01:44:27.470Z,10.43
2022-10-05T01:47:09.339Z,8.63
2022-10-05T01:49:38.800Z,12.35
2022-10-05T01:52:43.934Z,9.75
2022-10-05T01:55:19.655Z,12.65
2022-10-05T01:58:11.478Z,14.57
2022-10-05T02:00:56.538Z,10.30
2022-10-05T02:03:28.186Z,13.10
2022-10-05T02:05:59.614Z,11.23
2022-10-05T02:08:34.933Z,12.15
2022-10-05T02:11:06.514Z,11.87
2022-10-05T02:13:44.158Z,11.43
2022-10-05T02:16:34.003Z,10.23
2022-10-05T02:19:10.469Z,12.38
2022-10-05T02:21:36.984Z,11.55
2022-10-05T02:24:09.861Z,12.53
2022-10-05T02:26:37.479Z,11.45
2022-10-05T02:29:08.461Z,10.52
2022-10-05T02:31:47.678Z,12.85
2022-10-05T02:34:30.571Z,13.77
2022-10-05T02:37:15.894Z,11.53
2022-10-05T02:40:16.621Z,14.15
2022-10-05T02:42:50.825Z,10.75
2022-10-05T02:45:36.510Z,10.35
2022-10-05T02:48:28.258Z,12.10
2022-10-05T02:51:08.935Z,10.67
2022-10-05T02:54:06.149Z,13.88
2022-10-05T02:56:52.452Z,12.73
2022-10-05T02:59:40.544Z,10.88
2022-10-05T03:02:07.018Z,13.35
2022-10-05T03:04:47.863Z,13.73
2022-10-05T03:07:35.773Z,12.30
2022-10-05T03:10:16.431Z,11.05
2022-10-05T03:12:52.569Z,11.60
2022-10-05T03:15:31.072Z,13.95
2022-10-05T03:18:11.452Z,12.43
2022-10-05T03:21:04.153Z,12.38
2022-10-05T03:23:49.716Z,11.95
2022-10-05T03:26:25.283Z,13.45
2022-10-05T03:29:17.780Z,13.38
2022-10-05T03:31:56.311Z,11.37
2022-10-05T03:34:31.932Z,12.02
2022-10-05T03:37:13.791Z,11.25
2022-10-05T03:39:47.484Z,11.90
2022-10-05T03:42:38.866Z,10.40
2022-10-05T03:45:30.491Z,12.10
2022-10-05T03:48:11.475Z,10.60
2022-10-05T03:50:54.934Z,14.02
2022-10-05T03:53:28.177Z,8.57
2022-10-05T03:56:09.955Z,10.25
2022-10-05T03:58:50.052Z,10.77
2022-10-05T04:01:22.704Z,9.48
2022-10-05T04:04:04.000Z,9.10
2022-10-05T04:06:44.393Z,9.50
2022-10-05T04:09:24.335Z,8.30
2022-10-05T04:12:06.657Z,9.23
2022-10-05T04:14:46.654Z,9.40
2022-10-05T04:17:17.968Z,12.80
2022-10-05T04:19:54.754Z,8.02
2022-10-05T04:22:25.405Z,8.00
2022-10-05T04:24:58.560Z,7.80
2022-10-05T04:27:39.204Z,8.55
2022-10-05T04:30:10.205Z,8.35
2022-10-05T04:32:44.053Z,12.52
2022-10-05T04:35:19.501Z,10.48
2022-10-05T04:38:10.793Z,8.30
2022-10-05T04:41:05.042Z,7.80
2022-10-05T04:43:40.502Z,9.73
2022-10-05T04:46:24.690Z,9.07
2022-10-05T04:49:08.362Z,7.68
2022-10-05T04:51:48.915Z,6.67
2022-10-05T04:54:44.243Z,7.55
2022-10-05T04:57:17.792Z,10.75
2022-10-05T05:00:09.100Z,8.60
2022-10-05T05:03:09.622Z,7.80
2022-10-05T05:06:15.797Z,11.27
2022-10-05T05:09:22.335Z,8.15
2022-10-05T05:11:57.025Z,7.50
2022-10-05T05:14:36.194Z,6.28
2022-10-05T05:17:20.763Z,6.65
2022-10-05T05:20:09.436Z,5.10
2022-10-05T05:23:20.226Z,4.82
2022-10-05T05:25:56.228Z,6.53
2022-10-05T05:28:31.918Z,6.10
2022-10-05T05:31:39.664Z,6.22
2022-10-05T05:34:32.031Z,4.47
2022-10-05T05:37:24.478Z,8.20
2022-10-05T05:40:05.906Z,5.70
2022-10-05T05:42:42.460Z,4.60
2022-10-05T05:45:20.830Z,5.93
2022-10-05T05:47:59.375Z,5.30
2022-10-05T05:50:30.360Z,10.75
2022-10-05T05:53:05.672Z,6.32
2022-10-05T05:55:46.394Z,6.15
2022-10-05T05:58:25.209Z,4.68
2022-10-05T06:01:04.632Z,6.27
2022-10-05T06:03:43.282Z,4.63
2022-10-05T06:06:14.259Z,6.75
2022-10-05T06:08:49.828Z,7.07
2022-10-05T06:11:37.216Z,7.15
2022-10-05T06:14:13.080Z,6.87
2022-10-05T06:16:47.424Z,7.50
2022-10-05T06:19:17.435Z,7.70
2022-10-05T06:22:16.446Z,9.57
2022-10-05T06:25:15.790Z,7.30
2022-10-05T06:28:03.714Z,7.13
2022-10-05T06:30:57.989Z,7.20
2022-10-05T06:33:36.328Z,7.25
2022-10-05T06:36:10.285Z,6.15
2022-10-05T06:38:59.601Z,8.55
2022-10-05T06:41:54.966Z,9.90
2022-10-05T06:44:39.535Z,6.30
2022-10-05T06:47:20.320Z,17.33
2022-10-05T06:50:39.453Z,9.70
2022-10-05T06:53:20.475Z,7.30
2022-10-05T06:55:55.809Z,8.37
2022-10-05T06:58:41.477Z,9.25
2022-10-05T07:01:26.313Z,10.05
2022-10-05T07:04:34.597Z,6.50
2022-10-05T07:07:24.094Z,9.10
2022-10-05T07:10:08.752Z,8.20
2022-10-05T07:12:54.989Z,7.28
2022-10-05T07:15:46.829Z,7.00
2022-10-05T07:18:41.405Z,8.60
2022-10-05T07:21:22.710Z,5.78
2022-10-05T07:24:13.189Z,8.93
2022-10-05T07:26:49.233Z,5.05
2022-10-05T07:29:24.330Z,8.38
2022-10-05T07:32:24.614Z,7.90
2022-10-05T07:35:04.236Z,6.03
2022-10-05T07:37:54.411Z,8.33
2022-10-05T07:40:44.911Z,4.13
2022-10-05T07:43:23.479Z,5.32
2022-10-05T07:45:58.359Z,7.93
2022-10-05T07:49:06.840Z,5.18
2022-10-05T07:51:39.028Z,7.23
2022-10-05T07:54:21.357Z,5.93
2022-10-05T07:57:20.120Z,5.28
2022-10-05T08:00:01.496Z,5.38
2022-10-05T08:02:42.956Z,4.70
2022-10-05T08:05:32.264Z,5.37
2022-10-05T08:08:11.002Z,6.10
2022-10-05T08:11:00.897Z,9.10
2022-10-05T08:13:35.414Z,6.53
2022-10-05T08:16:06.488Z,9.30
2022-10-05T08:19:10.676Z,6.43
2022-10-05T08:21:43.997Z,5.22
2022-10-05T08:24:18.825Z,5.50
2022-10-05T08:27:17.486Z,5.97
2022-10-05T08:29:59.669Z,6.32
2022-10-05T08:32:31.525Z,6.33
2022-10-05T08:35:03.982Z,5.88
2022-10-05T08:37:37.205Z,8.25
2022-10-05T08:40:18.785Z,5.75
2022-10-05T08:43:19.374Z,5.38
2022-10-05T08:46:23.151Z,8.77
2022-10-05T08:48:56.482Z,6.97
2022-10-05T08:52:04.972Z,4.80
2022-10-05T08:54:40.391Z,5.93
2022-10-05T08:57:30.448Z,10.05
2022-10-05T09:00:10.491Z,4.67
2022-10-05T09:02:49.024Z,5.15
2022-10-05T09:05:41.793Z,4.50
2022-10-05T09:08:27.035Z,8.68
2022-10-05T09:11:17.069Z,4.97
2022-10-05T09:13:55.591Z,6.93
2022-10-05T09:16:41.373Z,5.45
2022-10-05T09:19:25.940Z,5.25
2022-10-05T09:22:15.728Z,6.35
2022-10-05T09:25:02.757Z,3.25
2022-10-05T09:27:37.022Z,2.57
2022-10-05T09:30:30.749Z,3.65
2022-10-05T09:33:25.747Z,4.13
2022-10-05T09:36:44.745Z,5.82
2022-10-05T09:39:29.713Z,5.50
2022-10-05T09:42:24.220Z,3.53
2022-10-05T09:45:17.714Z,4.38
2022-10-05T09:48:22.121Z,4.75
2022-10-05T09:51:22.482Z,3.90
2022-10-05T09:54:01.041Z,5.38
2022-10-05T09:56:49.904Z,3.57
2022-10-05T09:59:42.874Z,3.47
2022-10-05T10:02:27.639Z,3.05
2022-10-05T10:05:22.870Z,4.88
2022-10-05T10:07:58.518Z,4.43
2022-10-05T10:10:56.700Z,5.17
2022-10-05T10:13:28.968Z,2.70
2022-10-05T10:16:10.768Z,3.70
2022-10-05T10:19:17.801Z,5.38
2022-10-05T10:22:14.485Z,3.00
2022-10-05T10:25:10.818Z,4.80
2022-10-05T10:27:54.174Z,3.22
2022-10-05T10:31:11.975Z,4.80
2022-10-05T10:34:16.353Z,8.82
2022-10-05T10:37:03.495Z,4.53
2022-10-05T10:39:38.614Z,4.90
2022-10-05T10:42:26.766Z,6.50
2022-10-05T10:45:19.334Z,9.18
2022-10-05T10:47:51.999Z,5.05
2022-10-05T10:50:35.076Z,4.97
2022-10-05T10:53:36.060Z,4.47
2022-10-05T10:56:11.916Z,5.68
2022-10-05T10:58:53.532Z,9.45
2022-10-05T11:01:25.944Z,4.07
2022-10-05T11:04:07.317Z,7.22
2022-10-05T11:06:43.218Z,7.27
2022-10-05T11:09:51.625Z,6.22
2022-10-05T11:12:50.192Z,5.47
2022-10-05T11:15:25.870Z,4.75
2022-10-05T11:18:15.573Z,7.55
2022-10-05T11:21:17.260Z,4.73
2022-10-05T11:24:10.998Z,6.90
2022-10-05T11:27:04.010Z,6.78
2022-10-05T11:29:41.474Z,4.95
2022-10-05T11:32:26.399Z,5.35
2022-10-05T11:35:07.836Z,6.73
2022-10-05T11:37:40.236Z,5.22
2022-10-05T11:40:18.839Z,6.70
2022-10-05T11:42:57.411Z,4.53
2022-10-05T11:45:38.394Z,4.55
2022-10-05T11:48:23.772Z,4.83
2022-10-05T11:51:19.240Z,6.38
2022-10-05T11:54:10.023Z,5.05
2022-10-05T11:56:41.776Z,5.43
2022-10-05T11:59:23.411Z,5.60
2022-10-05T12:02:01.344Z,5.17
2022-10-05T12:04:42.776Z,6.15
2022-10-05T12:07:54.286Z,6.25
2022-10-05T12:10:28.910Z,3.97
2022-10-05T12:13:27.380Z,4.43
2022-10-05T12:16:10.463Z,3.30
2022-10-05T12:18:39.366Z,6.13
2022-10-05T12:21:33.010Z,6.13
2022-10-05T12:24:07.305Z,3.50
2022-10-05T12:26:55.400Z,2.95
2022-10-05T12:29:44.975Z,3.40
2022-10-05T12:32:21.162Z,4.88
2022-10-05T12:35:46.998Z,5.35
2022-10-05T12:38:46.622Z,3.63
2022-10-05T12:41:29.061Z,4.13
2022-10-05T12:44:02.613Z,4.13
2022-10-05T12:46:50.166Z,3.38
2022-10-05T12:49:34.988Z,2.92
2022-10-05T12:52:05.496Z,4.90
2022-10-05T12:54:46.958Z,6.00
2022-10-05T12:57:42.726Z,3.23
2022-10-05T13:00:09.305Z,5.20
2022-10-05T13:03:01.270Z,6.45
2022-10-05T13:05:36.680Z,6.93
2022-10-05T13:08:08.061Z,4.00
2022-10-05T13:11:02.231Z,4.90
2022-10-05T13:13:38.004Z,3.53
2022-10-05T13:16:22.727Z,8.43
2022-10-05T13:18:58.876Z,9.80
2022-10-05T13:21:53.624Z,3.75
2022-10-05T13:24:32.136Z,7.10
2022-10-05T13:27:05.018Z,8.20
2022-10-05T13:29:38.662Z,3.60
2022-10-05T13:32:27.146Z,2.80
2022-10-05T13:34:59.961Z,3.15
2022-10-05T13:38:07.301Z,6.00
2022-10-05T13:40:50.852Z,5.18
2022-10-05T13:43:40.175Z,5.10
2022-10-05T13:46:18.749Z,5.85
2022-10-05T13:48:52.571Z,3.97
2022-10-05T13:51:23.801Z,5.30
2022-10-05T13:54:01.720Z,6.55
2022-10-05T13:56:39.713Z,2.88
2022-10-05T13:59:38.359Z,5.40
2022-10-05T14:02:12.288Z,4.18
2022-10-05T14:04:52.126Z,7.27
2022-10-05T14:07:48.207Z,7.95
2022-10-05T14:10:28.773Z,5.63
2022-10-05T14:12:55.644Z,7.35
2022-10-05T14:15:33.094Z,5.05
2022-10-05T14:17:59.660Z,4.73
2022-10-05T14:20:31.557Z,3.95
2022-10-05T14:23:01.804Z,3.35
2022-10-05T14:25:30.526Z,4.78
2022-10-05T14:28:03.341Z,5.30
2022-10-05T14:30:32.167Z,4.50
2022-10-05T14:33:04.386Z,3.65
2022-10-05T14:35:36.963Z,6.85
2022-10-05T14:38:18.434Z,4.63
2022-10-05T14:40:44.934Z,5.38
2022-10-05T14:43:14.167Z,3.73
2022-10-05T14:46:02.653Z,3.20
2022-10-05T14:48:40.732Z,6.20
2022-10-05T14:51:25.373Z,4.40
2022-10-05T14:54:14.870Z,4.00
2022-10-05T14:56:56.951Z,7.77
2022-10-05T14:59:33.882Z,3.40
2022-10-05T15:02:37.727Z,5.15
2022-10-05T15:05:24.786Z,4.93
2022-10-05T15:07:53.070Z,4.22
2022-10-05T15:10:43.861Z,3.87
2022-10-05T15:13:18.403Z,5.00
2022-10-05T15:15:50.182Z,3.75
2022-10-05T15:18:32.029Z,3.15
2022-10-05T15:21:26.496Z,3.80
2022-10-05T15:24:14.944Z,4.03
2022-10-05T15:26:50.622Z,3.55
2022-10-05T15:29:32.062Z,6.28
2022-10-05T15:32:14.659Z,3.00
2022-10-05T15:35:03.977Z,4.30
2022-10-05T15:37:49.255Z,4.07
2022-10-05T15:40:44.558Z,4.82
2022-10-05T15:43:16.370Z,5.38
2022-10-05T15:46:06.413Z,3.42
2022-10-05T15:49:08.475Z,4.97
2022-10-05T15:51:53.728Z,3.70
2022-10-05T15:54:43.014Z,5.57
2022-10-05T15:57:33.231Z,7.93
2022-10-05T16:00:02.198Z,5.05
2022-10-05T16:02:44.177Z,4.95
2022-10-05T16:05:53.583Z,3.67
2022-10-05T16:08:56.441Z,5.68
2022-10-05T16:11:27.686Z,3.85
2022-10-05T16:14:35.986Z,2.95
2022-10-05T16:17:28.770Z,2.97
2022-10-05T16:19:58.184Z,3.97
2022-10-05T16:22:43.807Z,4.53
2022-10-05T16:25:22.195Z,3.58
2022-10-05T16:28:12.504Z,3.67
2022-10-05T16:30:58.759Z,5.70
2022-10-05T16:33:44.488Z,2.77
2022-10-05T16:36:25.981Z,3.10
2022-10-05T16:38:59.182Z,3.08
2022-10-05T16:41:34.972Z,5.38
2022-10-05T16:44:33.777Z,8.02
2022-10-05T16:47:32.343Z,4.73
2022-10-05T16:50:19.957Z,3.80
2022-10-05T16:52:52.257Z,3.60
2022-10-05T16:55:29.396Z,3.33
2022-10-05T16:57:57.955Z,5.38
2022-10-05T17:00:51.986Z,2.33
2022-10-05T17:03:29.775Z,5.25
2022-10-05T17:06:25.988Z,4.88
2022-10-05T17:09:20.354Z,4.57
2022-10-05T17:12:14.677Z,5.13
2022-10-05T17:14:59.661Z,4.33
2022-10-05T17:17:54.189Z,5.53
2022-10-05T17:20:33.807Z,2.22
2022-10-05T17:23:29.164Z,6.53
2022-10-05T17:26:03.746Z,4.75
2022-10-05T17:29:11.930Z,5.80
2022-10-05T17:32:30.359Z,6.78
2022-10-05T17:35:02.865Z,4.30
2022-10-05T17:37:39.416Z,4.63
2022-10-05T17:40:35.344Z,3.53
2022-10-05T17:43:26.798Z,4.03
2022-10-05T17:45:56.672Z,8.18
2022-10-05T17:48:44.118Z,3.90
2022-10-05T17:51:47.654Z,5.93
2022-10-05T17:54:42.296Z,6.95
2022-10-05T17:57:08.702Z,5.07
2022-10-05T17:59:56.821Z,3.67
2022-10-05T18:02:36.269Z,5.40
2022-10-05T18:05:12.441Z,5.85
2022-10-05T18:07:40.640Z,5.43
2022-10-05T18:10:09.907Z,4.93
2022-10-05T18:12:36.329Z,3.70
2022-10-05T18:15:35.599Z,5.95
2022-10-05T18:18:40.901Z,3.25
2022-10-05T18:21:13.449Z,5.35
2022-10-05T18:23:59.866Z,5.53
2022-10-05T18:27:15.330Z,8.05
2022-10-05T18:30:03.125Z,3.33
2022-10-05T18:32:52.625Z,6.05
2022-10-05T18:35:44.125Z,4.38
2022-10-05T18:38:20.615Z,4.80
2022-10-05T18:41:12.784Z,4.53
2022-10-05T18:44:05.712Z,5.13
2022-10-05T18:46:38.308Z,7.95
2022-10-05T18:49:28.916Z,4.07
2022-10-05T18:52:22.892Z,10.73
2022-10-05T18:55:19.110Z,6.50
2022-10-05T18:58:25.903Z,4.47
2022-10-05T19:01:15.026Z,3.42
2022-10-05T19:04:10.750Z,6.65
2022-10-05T19:06:43.736Z,2.77
2022-10-05T19:09:28.842Z,5.38
2022-10-05T19:11:59.908Z,5.38
2022-10-05T19:14:37.598Z,4.95
2022-10-05T19:17:23.967Z,7.63
2022-10-05T19:19:53.119Z,3.63
2022-10-05T19:22:51.986Z,2.75
2022-10-05T19:25:32.829Z,4.18
2022-10-05T19:28:18.278Z,6.47
2022-10-05T19:31:00.383Z,4.07
2022-10-05T19:34:04.766Z,4.40
2022-10-05T19:36:40.851Z,5.88
2022-10-05T19:39:11.136Z,3.30
2022-10-05T19:41:52.754Z,4.00
2022-10-05T19:44:28.891Z,9.55
2022-10-05T19:47:22.389Z,7.00
2022-10-05T19:49:51.814Z,4.47
2022-10-05T19:52:24.645Z,4.00
2022-10-05T19:55:22.412Z,3.13
2022-10-05T19:57:51.709Z,1.85
2022-10-05T20:00:20.791Z,7.37
2022-10-05T20:02:47.396Z,14.27
2022-10-05T20:05:14.202Z,3.22
2022-10-05T20:07:41.135Z,4.25
2022-10-05T20:10:29.013Z,8.52
2022-10-05T20:12:58.615Z,4.27
2022-10-05T20:15:52.970Z,6.28
2022-10-05T20:18:57.081Z,4.70
2022-10-05T20:21:40.022Z,1.13
2022-10-05T20:24:17.259Z,3.78
2022-10-05T20:27:02.188Z,3.00
2022-10-05T20:29:30.344Z,1.05
2022-10-05T20:31:56.801Z,1.27
2022-10-05T20:34:23.848Z,1.08
2022-10-05T20:36:51.137Z,2.35
2022-10-05T20:39:18.811Z,3.10
2022-10-05T20:41:45.470Z,2.67
2022-10-05T20:44:13.297Z,2.35
2022-10-05T20:46:41.611Z,4.15
2022-10-05T20:49:10.627Z,3.88
2022-10-05T20:51:40.452Z,2.30
2022-10-05T20:54:08.048Z,3.38
2022-10-05T20:56:34.882Z,4.72
2022-10-05T20:59:01.385Z,1.88
2022-10-05T21:01:28.957Z,1.98
2022-10-05T21:03:55.733Z,3.10
2022-10-05T21:06:22.457Z,3.00
2022-10-05T21:08:51.358Z,2.85
2022-10-05T21:11:17.877Z,5.20
2022-10-05T21:13:45.631Z,0.93
2022-10-05T21:16:13.983Z,2.47
2022-10-05T21:18:40.623Z,0.70
2022-10-05T21:21:07.646Z,4.80
2022-10-05T21:23:34.567Z,1.20
2022-10-05T21:26:01.706Z,1.05
2022-10-05T21:28:28.995Z,1.80
2022-10-05T21:30:55.689Z,2.78
2022-10-05T21:33:22.145Z,1.85
2022-10-05T21:35:48.550Z,2.03
2022-10-05T21:38:15.011Z,1.80
2022-10-05T21:40:43.319Z,4.90
2022-10-05T21:43:09.824Z,0.70
2022-10-05T21:45:36.383Z,0.68
2022-10-05T21:48:03.320Z,1.15
2022-10-05T21:50:29.768Z,2.47
2022-10-05T21:52:56.252Z,1.40
2022-10-05T21:55:22.778Z,1.70
2022-10-05T21:57:49.248Z,0.38
2022-10-05T22:00:16.698Z,1.02
2022-10-05T22:02:43.097Z,1.15
2022-10-05T22:05:09.661Z,2.57
2022-10-05T22:07:36.103Z,1.48
2022-10-05T22:10:02.833Z,1.50
2022-10-05T22:12:29.311Z,0.70
2022-10-05T22:14:55.792Z,2.85
2022-10-05T22:17:31.036Z,1.60
2022-10-05T22:20:01.381Z,0.70
2022-10-05T22:22:29.334Z,4.60
2022-10-05T22:24:56.287Z,0.90
2022-10-05T22:27:25.815Z,3.05
2022-10-05T22:29:53.120Z,2.73
2022-10-05T22:32:19.592Z,3.22
2022-10-05T22:34:46.416Z,2.47
2022-10-05T22:37:13.533Z,4.63
2022-10-05T22:39:40.257Z,2.25
2022-10-05T22:42:07.495Z,2.87
2022-10-05T22:44:34.488Z,2.47
2022-10-05T22:47:02.369Z,3.78
2022-10-05T22:49:28.792Z,1.20
2022-10-05T22:51:55.193Z,6.30
2022-10-05T22:54:22.944Z,0.90
2022-10-05T22:56:51.704Z,3.88
2022-10-05T22:59:18.160Z,2.08
2022-10-05T23:01:44.629Z,4.85
2022-10-05T23:04:11.862Z,6.28
2022-10-05T23:06:38.256Z,1.70
2022-10-05T23:09:04.737Z,5.22
2022-10-05T23:11:31.381Z,7.43
2022-10-05T23:13:58.684Z,6.32
2022-10-05T23:16:26.745Z,3.50
2022-10-05T23:18:55.073Z,5.80
2022-10-05T23:21:23.369Z,5.72
2022-10-05T23:23:52.607Z,4.63
2022-10-05T23:26:21.810Z,6.60
2022-10-05T23:28:49.277Z,8.48
2022-10-05T23:31:18.911Z,7.47
2022-10-05T23:33:45.634Z,14.23
2022-10-05T23:36:18.174Z,3.90
2022-10-05T23:38:45.298Z,5.20
2022-10-05T23:41:12.529Z,3.03
2022-10-05T23:43:39.671Z,5.90
2022-10-05T23:46:07.210Z,5.53
2022-10-05T23:48:37.935Z,10.32
2022-10-05T23:51:09.833Z,8.80
2022-10-05T23:53:36.462Z,5.28
2022-10-05T23:56:03.629Z,7.03
2022-10-05T23:58:30.642Z,8.20
